Appomattox, Virginia
Current Conditions -  °F | °C
As of 9:35 PM on Saturday 20 Dec 2014 (Local Time) from K0V4 Reporting Station
Overcast Overcast  
Wind Chill:   Ceiling: 7000
Heat Index:   Visibility: 10mi
Dew Point:   Wind: 0mph
Humidity: 90%   Direction: NA
Pressure: 30.27"   Gusts: NA
Location:  37.36°N, 78.83°W
Report Text: K0V4 210235Z AUTO 00000KT 10SM OVC070 02/00 A3027 RMK AO1 T00150000
Loading
Personal Weather Stations






























Interactive Weather Map New forecast layout! Learn more

10-Day Weather Forecast

Advertisements
Track Severe Weather on mobile